createdAt,value
2023-01-01T00:00:55.108Z,168.02
2023-01-01T00:02:17.111Z,168.88
2023-01-01T00:03:39.708Z,172.25
2023-01-01T00:05:01.238Z,188.25
2023-01-01T00:06:23.950Z,205.60
2023-01-01T00:07:45.754Z,221.10
2023-01-01T00:09:26.219Z,200.35
2023-01-01T00:10:48.060Z,189.70
2023-01-01T00:12:09.859Z,187.57
2023-01-01T00:13:31.972Z,196.35
2023-01-01T00:14:53.913Z,201.20
2023-01-01T00:16:15.845Z,205.07
2023-01-01T00:17:37.771Z,210.48
2023-01-01T00:18:59.860Z,210.55
2023-01-01T00:20:21.663Z,219.48
2023-01-01T00:21:43.465Z,225.73
2023-01-01T00:23:05.142Z,233.68
2023-01-01T00:24:27.112Z,242.23
2023-01-01T00:25:49.019Z,252.80
2023-01-01T00:27:11.108Z,260.85
2023-01-01T00:28:32.984Z,251.38
2023-01-01T00:29:54.821Z,261.25
2023-01-01T00:31:20.407Z,282.15
2023-01-01T00:32:42.131Z,282.00
2023-01-01T00:34:03.953Z,271.15
2023-01-01T00:35:26.996Z,251.38
2023-01-01T00:36:48.709Z,248.40
2023-01-01T00:38:10.588Z,245.98
2023-01-01T00:39:32.492Z,244.05
2023-01-01T00:40:54.396Z,240.98
2023-01-01T00:42:16.339Z,234.98
2023-01-01T00:43:38.102Z,238.15
2023-01-01T00:44:59.968Z,234.27
2023-01-01T00:46:21.867Z,228.10
2023-01-01T00:47:43.894Z,221.95
2023-01-01T00:49:05.822Z,230.63
2023-01-01T00:50:27.822Z,221.10
2023-01-01T00:51:49.951Z,233.10
2023-01-01T00:53:12.037Z,232.23
2023-01-01T00:54:33.577Z,264.98
2023-01-01T00:55:56.573Z,265.80
2023-01-01T00:57:18.329Z,268.65
2023-01-01T00:58:40.167Z,241.95
2023-01-01T01:00:02.176Z,270.70
2023-01-01T01:01:24.224Z,248.93
2023-01-01T01:02:46.979Z,222.15
2023-01-01T01:04:09.462Z,205.00
2023-01-01T01:05:32.332Z,182.27
2023-01-01T01:06:53.866Z,172.13
2023-01-01T01:08:15.789Z,165.57
2023-01-01T01:09:37.758Z,163.85
2023-01-01T01:11:07.824Z,174.77
2023-01-01T01:12:29.404Z,164.07
2023-01-01T01:13:53.777Z,155.32
2023-01-01T01:15:15.675Z,153.68
2023-01-01T01:16:37.433Z,147.40
2023-01-01T01:17:59.031Z,142.00
2023-01-01T01:19:24.039Z,138.63
2023-01-01T01:20:51.918Z,134.90
2023-01-01T01:22:13.863Z,133.70
2023-01-01T01:23:36.142Z,131.73
2023-01-01T01:24:58.673Z,148.93
2023-01-01T01:26:23.624Z,146.40
2023-01-01T01:27:45.306Z,145.93
2023-01-01T01:29:07.289Z,145.57
2023-01-01T01:30:30.590Z,140.90
2023-01-01T01:31:52.270Z,132.27
2023-01-01T01:33:14.286Z,140.27
2023-01-01T01:34:36.229Z,135.55
2023-01-01T01:35:58.540Z,134.93
2023-01-01T01:37:20.493Z,142.15
2023-01-01T01:38:43.012Z,137.20
2023-01-01T01:40:05.009Z,147.18
2023-01-01T01:41:29.114Z,153.77
2023-01-01T01:42:52.239Z,159.50
2023-01-01T01:44:51.603Z,161.35
2023-01-01T01:46:34.580Z,158.75
2023-01-01T01:47:58.887Z,163.38
2023-01-01T01:49:32.028Z,154.60
2023-01-01T01:50:56.503Z,146.68
2023-01-01T01:52:18.545Z,163.18
2023-01-01T01:53:46.264Z,158.52
2023-01-01T01:55:09.855Z,160.32
2023-01-01T01:56:49.749Z,163.25
2023-01-01T01:59:38.605Z,148.40
2023-01-01T02:01:01.138Z,162.50
2023-01-01T02:02:58.386Z,174.68
2023-01-01T02:04:20.947Z,173.43
2023-01-01T02:05:43.171Z,179.95
2023-01-01T02:07:05.355Z,169.07
2023-01-01T02:08:28.457Z,166.82
2023-01-01T02:09:50.598Z,168.27
2023-01-01T02:11:14.211Z,169.07
2023-01-01T02:12:39.468Z,176.77
2023-01-01T02:14:05.222Z,166.80
2023-01-01T02:15:33.932Z,166.73
2023-01-01T02:17:00.663Z,152.93
2023-01-01T02:18:28.840Z,156.43
2023-01-01T02:20:19.154Z,156.40
2023-01-01T02:22:04.003Z,146.05
2023-01-01T02:23:53.214Z,141.25
2023-01-01T02:25:24.159Z,140.82
2023-01-01T02:27:03.495Z,145.07
2023-01-01T02:28:53.456Z,131.93
2023-01-01T02:30:16.095Z,122.57
2023-01-01T02:31:47.692Z,118.20
2023-01-01T02:33:16.411Z,119.07
2023-01-01T02:34:54.953Z,83.97
2023-01-01T02:36:19.045Z,106.80
2023-01-01T02:37:41.557Z,106.97
2023-01-01T02:39:07.116Z,105.50
2023-01-01T02:40:29.402Z,99.65
2023-01-01T02:41:54.819Z,103.85
2023-01-01T02:43:22.988Z,98.90
2023-01-01T02:46:12.528Z,101.10
2023-01-01T02:47:34.252Z,104.28
2023-01-01T02:48:56.087Z,106.68
2023-01-01T02:50:23.965Z,102.70
2023-01-01T02:51:57.712Z,111.47
2023-01-01T02:53:37.375Z,104.88
2023-01-01T02:55:30.796Z,105.03
2023-01-01T02:57:04.008Z,111.47
2023-01-01T02:58:58.255Z,99.75
2023-01-01T03:00:31.369Z,113.22
2023-01-01T03:02:18.595Z,107.65
2023-01-01T03:04:05.759Z,112.47
2023-01-01T03:06:15.468Z,108.63
2023-01-01T03:07:49.934Z,103.80
2023-01-01T03:09:23.290Z,106.13
2023-01-01T03:11:03.441Z,99.45
2023-01-01T03:12:43.881Z,100.65
2023-01-01T03:14:44.005Z,98.95
2023-01-01T03:17:41.325Z,99.68
2023-01-01T03:19:11.415Z,99.85
2023-01-01T03:20:38.990Z,94.55
2023-01-01T03:22:09.027Z,93.15
2023-01-01T03:23:37.002Z,97.60
2023-01-01T03:25:14.690Z,93.78
2023-01-01T03:26:39.004Z,91.07
2023-01-01T03:28:18.694Z,92.15
2023-01-01T03:29:42.664Z,88.40
2023-01-01T03:31:04.644Z,91.18
2023-01-01T03:32:56.024Z,89.55
2023-01-01T03:34:23.733Z,87.10
2023-01-01T03:35:50.489Z,81.35
2023-01-01T03:37:18.616Z,76.63
2023-01-01T03:38:52.130Z,74.82
2023-01-01T03:40:15.161Z,84.22
2023-01-01T03:41:56.767Z,82.95
2023-01-01T03:43:49.429Z,75.80
2023-01-01T03:45:39.180Z,76.60
2023-01-01T03:47:01.893Z,73.53
2023-01-01T03:48:23.778Z,68.53
2023-01-01T03:49:46.471Z,72.22
2023-01-01T03:51:22.126Z,56.58
2023-01-01T03:53:08.058Z,60.83
2023-01-01T03:54:46.160Z,57.25
2023-01-01T03:56:22.324Z,62.83
2023-01-01T03:57:49.824Z,50.97
2023-01-01T03:59:35.221Z,49.00
2023-01-01T04:01:06.798Z,49.63
2023-01-01T04:02:36.743Z,52.80
2023-01-01T04:04:01.511Z,52.97
2023-01-01T04:05:25.021Z,51.42
2023-01-01T04:06:47.362Z,54.92
2023-01-01T04:08:10.574Z,50.30
2023-01-01T04:09:36.945Z,57.38
2023-01-01T04:11:00.686Z,64.40
2023-01-01T04:12:22.676Z,74.70
2023-01-01T04:13:48.793Z,84.22
2023-01-01T04:15:10.733Z,83.55
2023-01-01T04:16:32.668Z,83.10
2023-01-01T04:17:55.079Z,76.53
2023-01-01T04:19:16.896Z,77.22
2023-01-01T04:20:38.861Z,85.20
2023-01-01T04:22:01.360Z,86.20
2023-01-01T04:23:23.232Z,97.85
2023-01-01T04:24:45.099Z,100.30
2023-01-01T04:26:11.645Z,106.15
2023-01-01T04:27:33.617Z,126.38
2023-01-01T04:28:55.256Z,124.28
2023-01-01T04:30:17.983Z,131.27
2023-01-01T04:31:39.981Z,125.25
2023-01-01T04:33:01.900Z,129.30
2023-01-01T04:34:23.772Z,148.05
2023-01-01T04:35:45.905Z,155.98
2023-01-01T04:37:12.905Z,133.40
2023-01-01T04:38:35.893Z,144.10
2023-01-01T04:39:58.300Z,158.73
2023-01-01T04:41:20.362Z,148.73
2023-01-01T04:42:43.178Z,139.23
2023-01-01T04:44:05.789Z,139.50
2023-01-01T04:45:27.797Z,140.38
2023-01-01T04:46:50.847Z,134.80
2023-01-01T04:48:15.100Z,136.65
2023-01-01T04:49:37.148Z,136.68
2023-01-01T04:51:01.585Z,144.80
2023-01-01T04:52:23.783Z,137.25
2023-01-01T04:53:46.020Z,136.15
2023-01-01T04:55:08.140Z,140.25
2023-01-01T04:56:30.717Z,166.23
2023-01-01T04:57:52.606Z,160.57
2023-01-01T04:59:14.577Z,158.57
2023-01-01T05:00:36.524Z,180.68
2023-01-01T05:01:59.008Z,186.63
2023-01-01T05:03:20.713Z,183.80
2023-01-01T05:04:42.725Z,198.63
2023-01-01T05:06:10.470Z,216.05
2023-01-01T05:07:33.853Z,206.80
2023-01-01T05:08:58.429Z,193.30
2023-01-01T05:10:20.119Z,184.20
2023-01-01T05:11:42.060Z,179.90
2023-01-01T05:13:08.649Z,187.75
2023-01-01T05:14:30.219Z,213.68
2023-01-01T05:15:52.013Z,222.95
2023-01-01T05:17:14.873Z,211.85
2023-01-01T05:18:37.781Z,203.27
2023-01-01T05:20:00.404Z,206.13
2023-01-01T05:21:27.808Z,198.27
2023-01-01T05:22:49.352Z,195.30
2023-01-01T05:24:11.503Z,191.82
2023-01-01T05:25:33.105Z,200.43
2023-01-01T05:26:55.035Z,184.20
2023-01-01T05:28:16.597Z,187.18
2023-01-01T05:29:38.613Z,188.68
2023-01-01T05:31:04.778Z,175.10
2023-01-01T05:32:26.483Z,180.60
2023-01-01T05:33:49.299Z,174.95
2023-01-01T05:35:11.232Z,174.02
2023-01-01T05:36:38.440Z,179.55
2023-01-01T05:38:00.489Z,180.30
2023-01-01T05:39:21.971Z,177.80
2023-01-01T05:40:43.841Z,185.95
2023-01-01T05:42:05.842Z,181.65
2023-01-01T05:43:30.007Z,191.43
2023-01-01T05:44:51.907Z,187.07
2023-01-01T05:46:31.903Z,189.60
2023-01-01T05:47:53.846Z,180.55
2023-01-01T05:49:15.590Z,190.60
2023-01-01T05:50:37.148Z,194.88
2023-01-01T05:51:58.949Z,193.43
2023-01-01T05:53:20.720Z,203.10
2023-01-01T05:54:42.843Z,192.82
2023-01-01T05:56:05.631Z,199.32
2023-01-01T05:57:29.297Z,209.27
2023-01-01T05:58:51.044Z,194.40
2023-01-01T06:00:13.319Z,203.25
2023-01-01T06:01:38.737Z,197.75
2023-01-01T06:03:05.116Z,199.82
2023-01-01T06:04:26.890Z,204.07
2023-01-01T06:05:48.994Z,195.07
2023-01-01T06:07:10.967Z,192.68
2023-01-01T06:08:32.947Z,177.65
2023-01-01T06:09:54.623Z,177.63
2023-01-01T06:11:16.570Z,179.05
2023-01-01T06:12:38.446Z,175.00
2023-01-01T06:14:01.348Z,185.57
2023-01-01T06:15:23.199Z,182.10
2023-01-01T06:16:45.181Z,180.20
2023-01-01T06:18:07.258Z,182.95
2023-01-01T06:19:29.337Z,183.95
2023-01-01T06:20:51.891Z,183.60
2023-01-01T06:22:13.520Z,174.52
2023-01-01T06:23:35.459Z,181.52
2023-01-01T06:24:57.382Z,184.90
2023-01-01T06:26:23.577Z,191.30
2023-01-01T06:27:45.441Z,194.65
2023-01-01T06:29:07.290Z,215.48
2023-01-01T06:30:28.986Z,202.10
2023-01-01T06:31:50.464Z,255.38
2023-01-01T06:33:12.479Z,244.93
2023-01-01T06:34:34.305Z,227.85
2023-01-01T06:35:56.372Z,241.77
2023-01-01T06:37:17.851Z,231.00
2023-01-01T06:38:42.621Z,226.63
2023-01-01T06:40:05.433Z,214.07
2023-01-01T06:41:28.672Z,223.88
2023-01-01T06:42:50.695Z,217.98
2023-01-01T06:44:12.312Z,230.35
2023-01-01T06:45:34.129Z,215.63
2023-01-01T06:46:55.961Z,200.20
2023-01-01T06:48:17.941Z,208.35
2023-01-01T06:49:39.847Z,224.55
2023-01-01T06:51:08.423Z,228.98
2023-01-01T06:52:30.607Z,189.15
2023-01-01T06:53:52.942Z,177.85
2023-01-01T06:55:14.699Z,195.88
2023-01-01T06:56:37.015Z,148.23
2023-01-01T06:57:59.078Z,126.07
2023-01-01T06:59:20.789Z,111.72
2023-01-01T07:00:43.584Z,107.93
2023-01-01T07:02:05.870Z,116.00
2023-01-01T07:03:28.110Z,127.63
2023-01-01T07:04:50.311Z,116.15
2023-01-01T07:06:12.157Z,118.88
2023-01-01T07:07:36.059Z,123.35
2023-01-01T07:08:58.823Z,117.22
2023-01-01T07:10:20.383Z,117.93
2023-01-01T07:11:42.406Z,124.53
2023-01-01T07:13:04.292Z,145.57
2023-01-01T07:14:26.181Z,152.70
2023-01-01T07:15:48.002Z,173.55
2023-01-01T07:17:09.902Z,201.15
2023-01-01T07:18:31.817Z,169.00
2023-01-01T07:19:53.836Z,173.48
2023-01-01T07:21:29.454Z,184.18
2023-01-01T07:22:51.625Z,194.50
2023-01-01T07:24:15.466Z,231.15
2023-01-01T07:25:37.150Z,258.23
2023-01-01T07:26:59.018Z,211.77
2023-01-01T07:28:22.293Z,184.40
2023-01-01T07:29:43.932Z,152.68
2023-01-01T07:31:05.905Z,139.80
2023-01-01T07:32:27.819Z,207.20
2023-01-01T07:33:50.059Z,220.10
2023-01-01T07:35:11.697Z,157.77
2023-01-01T07:36:34.266Z,160.77
2023-01-01T07:37:55.967Z,135.70
2023-01-01T07:39:17.891Z,141.32
2023-01-01T07:40:39.814Z,133.75
2023-01-01T07:42:04.881Z,159.80
2023-01-01T07:43:29.304Z,166.85
2023-01-01T07:44:51.018Z,157.75
2023-01-01T07:46:16.623Z,172.85
2023-01-01T07:47:38.371Z,191.27
2023-01-01T07:49:00.280Z,233.93
2023-01-01T07:50:23.896Z,214.10
2023-01-01T07:51:45.765Z,191.15
2023-01-01T07:53:08.218Z,378.35
2023-01-01T07:54:30.326Z,239.30
2023-01-01T07:55:52.356Z,195.25
2023-01-01T07:57:13.912Z,200.07
2023-01-01T07:58:38.806Z,167.35
2023-01-01T08:00:00.685Z,196.10
2023-01-01T08:01:22.874Z,126.95
2023-01-01T08:02:45.472Z,104.05
2023-01-01T08:04:07.623Z,106.68
2023-01-01T08:05:29.193Z,106.75
2023-01-01T08:06:51.044Z,98.30
2023-01-01T08:08:12.855Z,96.13
2023-01-01T08:09:34.847Z,212.40
2023-01-01T08:11:03.869Z,306.15
2023-01-01T08:12:26.458Z,184.70
2023-01-01T08:13:48.271Z,164.20
2023-01-01T08:15:10.874Z,131.75
2023-01-01T08:16:32.778Z,138.23
2023-01-01T08:17:58.415Z,141.75
2023-01-01T08:19:20.236Z,133.82
2023-01-01T08:20:42.144Z,106.35
2023-01-01T08:22:04.295Z,105.40
2023-01-01T08:23:26.049Z,206.80
2023-01-01T08:24:47.608Z,190.25
2023-01-01T08:26:19.081Z,102.97
2023-01-01T08:27:40.595Z,85.85
2023-01-01T08:29:06.952Z,79.38
2023-01-01T08:30:29.458Z,204.52
2023-01-01T08:31:51.466Z,145.98
2023-01-01T08:33:13.520Z,108.50
2023-01-01T08:34:35.366Z,215.63
2023-01-01T08:35:57.329Z,108.65
2023-01-01T08:37:21.403Z,109.88
2023-01-01T08:38:43.941Z,113.28
2023-01-01T08:40:06.339Z,121.03
2023-01-01T08:41:27.869Z,106.03
2023-01-01T08:42:49.834Z,121.95
2023-01-01T08:44:11.850Z,147.55
2023-01-01T08:45:34.026Z,108.85
2023-01-01T08:46:55.856Z,189.10
2023-01-01T08:48:17.790Z,153.20
2023-01-01T08:49:39.456Z,135.23
2023-01-01T08:51:02.111Z,122.88
2023-01-01T08:52:23.982Z,123.82
2023-01-01T08:53:50.942Z,146.07
2023-01-01T08:55:13.314Z,162.10
2023-01-01T08:56:35.146Z,155.45
2023-01-01T08:57:57.033Z,85.35
2023-01-01T08:59:19.162Z,60.97
2023-01-01T09:00:41.055Z,78.10
2023-01-01T09:02:03.431Z,190.25
2023-01-01T09:03:25.887Z,94.40
2023-01-01T09:04:47.610Z,86.45
2023-01-01T09:06:09.418Z,132.15
2023-01-01T09:07:31.428Z,133.73
2023-01-01T09:08:53.170Z,135.63
2023-01-01T09:10:15.547Z,132.40
2023-01-01T09:11:37.636Z,91.88
2023-01-01T09:12:59.653Z,73.07
2023-01-01T09:14:22.124Z,71.95
2023-01-01T09:15:44.203Z,55.53
2023-01-01T09:17:06.169Z,59.08
2023-01-01T09:18:28.182Z,56.15
2023-01-01T09:19:50.158Z,57.60
2023-01-01T09:21:12.275Z,57.63
2023-01-01T09:22:34.624Z,53.90
2023-01-01T09:23:56.502Z,56.55
2023-01-01T09:25:18.671Z,56.33
2023-01-01T09:26:40.450Z,58.55
2023-01-01T09:28:05.218Z,64.75
2023-01-01T09:29:27.009Z,82.38
2023-01-01T09:30:48.789Z,95.38
2023-01-01T09:32:10.589Z,105.32
2023-01-01T09:33:33.259Z,104.32
2023-01-01T09:34:55.015Z,112.63
2023-01-01T09:36:22.546Z,117.13
2023-01-01T09:37:44.636Z,132.05
2023-01-01T09:39:06.773Z,109.38
2023-01-01T09:40:42.636Z,119.47
2023-01-01T09:42:35.873Z,125.78
2023-01-01T09:45:32.923Z,150.57
2023-01-01T09:46:59.563Z,142.32
2023-01-01T09:48:23.797Z,117.53
2023-01-01T09:49:47.946Z,91.93
2023-01-01T09:51:18.072Z,117.78
2023-01-01T09:52:57.114Z,106.07
2023-01-01T09:54:18.920Z,85.97
2023-01-01T09:56:00.914Z,83.57
2023-01-01T09:57:30.911Z,83.07
2023-01-01T09:58:56.168Z,111.40
2023-01-01T10:00:19.359Z,125.13
2023-01-01T10:01:53.178Z,136.32
2023-01-01T10:03:56.459Z,100.65
2023-01-01T10:05:52.616Z,101.55
2023-01-01T10:07:45.675Z,95.82
2023-01-01T10:09:34.563Z,257.88
2023-01-01T10:11:06.327Z,230.45
2023-01-01T10:12:40.737Z,144.07
2023-01-01T10:14:08.250Z,140.70
2023-01-01T10:15:37.973Z,135.40
2023-01-01T10:17:11.377Z,128.48
2023-01-01T10:18:38.328Z,219.90
2023-01-01T10:20:07.468Z,159.98
2023-01-01T10:21:38.633Z,134.88
2023-01-01T10:23:19.448Z,102.20
2023-01-01T10:24:47.139Z,107.03
2023-01-01T10:26:16.282Z,100.93
2023-01-01T10:27:44.932Z,102.47
2023-01-01T10:29:18.544Z,98.00
2023-01-01T10:30:43.049Z,80.95
2023-01-01T10:32:30.615Z,70.30
2023-01-01T10:33:52.776Z,69.18
2023-01-01T10:35:17.205Z,68.90
2023-01-01T10:36:39.179Z,63.25
2023-01-01T10:38:02.318Z,60.05
2023-01-01T10:39:25.053Z,55.50
2023-01-01T10:40:46.769Z,59.42
2023-01-01T10:42:10.727Z,56.50
2023-01-01T10:43:32.423Z,59.72
2023-01-01T10:44:55.586Z,66.47
2023-01-01T10:46:27.685Z,67.72
2023-01-01T10:48:20.547Z,65.60
2023-01-01T10:50:07.839Z,68.93
2023-01-01T10:51:29.545Z,67.15
2023-01-01T10:52:57.484Z,84.80
2023-01-01T10:54:40.356Z,84.38
2023-01-01T10:56:13.100Z,96.43
2023-01-01T10:57:38.786Z,73.47
2023-01-01T10:59:00.404Z,71.32
2023-01-01T11:00:22.635Z,67.85
2023-01-01T11:01:45.240Z,62.05
2023-01-01T11:03:21.389Z,62.50
2023-01-01T11:04:43.092Z,74.47
2023-01-01T11:06:24.956Z,69.18
2023-01-01T11:07:47.859Z,74.47
2023-01-01T11:09:28.480Z,81.90
2023-01-01T11:10:53.753Z,74.45
2023-01-01T11:13:02.922Z,84.88
2023-01-01T11:14:25.598Z,81.15
2023-01-01T11:15:47.739Z,85.18
2023-01-01T11:17:10.545Z,82.68
2023-01-01T11:18:36.224Z,86.07
2023-01-01T11:20:02.935Z,76.05
2023-01-01T11:21:25.227Z,70.93
2023-01-01T11:22:52.819Z,64.40
2023-01-01T11:24:21.499Z,74.13
2023-01-01T11:26:17.391Z,70.43
2023-01-01T11:27:39.231Z,70.35
2023-01-01T11:29:05.335Z,63.22
2023-01-01T11:30:29.394Z,66.68
2023-01-01T11:31:52.533Z,64.25
2023-01-01T11:33:17.789Z,71.53
2023-01-01T11:34:43.082Z,55.25
2023-01-01T11:36:06.689Z,55.88
2023-01-01T11:37:36.282Z,63.08
2023-01-01T11:39:23.225Z,64.38
2023-01-01T11:40:52.672Z,61.38
2023-01-01T11:42:34.357Z,60.28
2023-01-01T11:43:56.300Z,51.60
2023-01-01T11:45:32.917Z,58.97
2023-01-01T11:46:58.043Z,57.70
2023-01-01T11:48:26.065Z,60.92
2023-01-01T11:49:53.837Z,41.22
2023-01-01T11:51:31.898Z,66.90
2023-01-01T11:52:58.257Z,41.40
2023-01-01T11:54:27.922Z,47.97
2023-01-01T11:56:00.365Z,199.32
2023-01-01T11:57:25.754Z,62.83
2023-01-01T11:59:16.384Z,46.67
2023-01-01T12:00:38.583Z,28.70
2023-01-01T12:02:04.389Z,31.45
2023-01-01T12:03:49.181Z,31.52
2023-01-01T12:05:48.643Z,38.38
2023-01-01T12:07:18.361Z,34.53
2023-01-01T12:08:51.470Z,39.10
2023-01-01T12:10:40.333Z,41.88
2023-01-01T12:12:17.601Z,71.25
2023-01-01T12:13:51.203Z,32.38
2023-01-01T12:15:28.852Z,68.20
2023-01-01T12:16:58.101Z,134.65
2023-01-01T12:18:49.396Z,46.95
2023-01-01T12:20:30.521Z,31.20
2023-01-01T12:21:58.822Z,31.65
2023-01-01T12:23:20.798Z,55.13
2023-01-01T12:24:43.174Z,59.72
2023-01-01T12:26:20.607Z,97.38
2023-01-01T12:28:19.334Z,61.70
2023-01-01T12:29:53.326Z,74.32
2023-01-01T12:31:28.577Z,49.83
2023-01-01T12:33:16.806Z,25.63
2023-01-01T12:34:57.347Z,31.13
2023-01-01T12:36:45.022Z,44.28
2023-01-01T12:39:00.637Z,57.88
2023-01-01T12:40:51.709Z,28.48
2023-01-01T12:42:29.964Z,52.08
2023-01-01T12:44:15.573Z,36.53
2023-01-01T12:45:42.867Z,42.67
2023-01-01T12:47:19.899Z,147.98
2023-01-01T12:48:47.638Z,59.50
2023-01-01T12:50:21.771Z,50.05
2023-01-01T12:51:55.249Z,46.90
2023-01-01T12:53:54.651Z,28.90
2023-01-01T12:57:09.517Z,22.80
2023-01-01T12:58:39.685Z,32.70
2023-01-01T13:00:04.472Z,57.63
2023-01-01T13:01:33.950Z,40.63
2023-01-01T13:03:18.593Z,60.40
2023-01-01T13:04:41.961Z,23.83
2023-01-01T13:06:04.796Z,55.40
2023-01-01T13:07:43.042Z,21.63
2023-01-01T13:09:15.118Z,26.58
2023-01-01T13:10:40.637Z,17.45
2023-01-01T13:12:16.265Z,51.30
2023-01-01T13:13:38.188Z,18.83
2023-01-01T13:14:59.889Z,16.55
2023-01-01T13:16:39.339Z,16.48
2023-01-01T13:18:05.365Z,13.00
2023-01-01T13:19:33.669Z,18.27
2023-01-01T13:20:59.128Z,13.32
2023-01-01T13:22:27.141Z,12.65
2023-01-01T13:23:50.305Z,10.05
2023-01-01T13:25:11.845Z,12.25
2023-01-01T13:26:35.346Z,12.90
2023-01-01T13:28:00.585Z,19.67
2023-01-01T13:29:22.398Z,14.65
2023-01-01T13:30:44.239Z,16.70
2023-01-01T13:32:07.485Z,17.95
2023-01-01T13:33:33.313Z,15.07
2023-01-01T13:35:03.240Z,12.27
2023-01-01T13:36:25.273Z,12.32
2023-01-01T13:37:47.941Z,12.90
2023-01-01T13:39:09.553Z,17.83
2023-01-01T13:40:47.555Z,31.25
2023-01-01T13:42:57.645Z,22.65
2023-01-01T13:44:23.873Z,23.67
2023-01-01T13:46:13.610Z,98.40
2023-01-01T13:47:49.270Z,46.85
2023-01-01T13:49:29.701Z,85.30
2023-01-01T13:51:33.638Z,66.57
2023-01-01T13:53:00.935Z,73.40
2023-01-01T13:55:06.056Z,72.45
2023-01-01T13:56:52.584Z,61.70
2023-01-01T13:58:40.786Z,57.70
2023-01-01T14:00:26.021Z,59.63
2023-01-01T14:02:12.406Z,63.55
2023-01-01T14:03:42.456Z,68.43
2023-01-01T14:05:32.863Z,77.55
2023-01-01T14:06:58.330Z,130.38
2023-01-01T14:08:32.785Z,135.40
2023-01-01T14:10:07.993Z,127.47
2023-01-01T14:11:30.028Z,117.47
2023-01-01T14:12:53.098Z,122.53
2023-01-01T14:14:31.131Z,119.22
2023-01-01T14:16:01.442Z,112.78
2023-01-01T14:17:24.427Z,112.43
2023-01-01T14:18:50.171Z,102.63
2023-01-01T14:20:18.736Z,78.50
2023-01-01T14:21:40.526Z,87.57
2023-01-01T14:23:16.157Z,109.00
2023-01-01T14:24:48.367Z,175.32
2023-01-01T14:26:22.028Z,152.10
2023-01-01T14:27:45.133Z,134.43
2023-01-01T14:29:17.168Z,156.90
2023-01-01T14:30:38.807Z,165.25
2023-01-01T14:32:12.208Z,159.52
2023-01-01T14:33:34.948Z,170.35
2023-01-01T14:35:01.802Z,140.23
2023-01-01T14:36:32.015Z,137.18
2023-01-01T14:39:28.824Z,133.60
2023-01-01T14:41:11.438Z,124.63
2023-01-01T14:42:34.720Z,146.15
2023-01-01T14:44:18.751Z,206.95
2023-01-01T14:45:43.980Z,215.73
2023-01-01T14:47:16.869Z,223.95
2023-01-01T14:48:42.330Z,222.80
2023-01-01T14:50:16.998Z,175.35
2023-01-01T14:51:45.627Z,124.63
2023-01-01T14:53:13.546Z,102.88
2023-01-01T14:54:42.430Z,93.60
2023-01-01T14:56:07.137Z,96.32
2023-01-01T14:57:37.400Z,91.63
2023-01-01T15:00:35.517Z,73.32
2023-01-01T15:02:12.572Z,63.35
2023-01-01T15:03:34.581Z,72.82
2023-01-01T15:04:57.795Z,67.38
2023-01-01T15:06:19.731Z,79.75
2023-01-01T15:07:41.709Z,87.55
2023-01-01T15:09:03.808Z,108.28
2023-01-01T15:10:28.217Z,136.95
2023-01-01T15:11:53.468Z,176.18
2023-01-01T15:13:26.813Z,244.23
2023-01-01T15:14:50.950Z,295.80
2023-01-01T15:16:17.858Z,219.85
2023-01-01T15:17:47.964Z,205.13
2023-01-01T15:19:19.663Z,143.45
2023-01-01T15:20:41.781Z,135.63
2023-01-01T15:22:29.570Z,118.07
2023-01-01T15:24:11.626Z,86.10
2023-01-01T15:25:36.306Z,105.78
2023-01-01T15:27:01.055Z,106.00
2023-01-01T15:28:22.796Z,84.32
2023-01-01T15:29:47.641Z,79.00
2023-01-01T15:31:10.281Z,71.60
2023-01-01T15:32:38.721Z,70.82
2023-01-01T15:34:00.519Z,58.55
2023-01-01T15:35:31.775Z,61.90
2023-01-01T15:36:55.678Z,89.05
2023-01-01T15:38:26.515Z,84.00
2023-01-01T15:39:52.189Z,81.28
2023-01-01T15:41:45.337Z,73.75
2023-01-01T15:43:19.918Z,111.25
2023-01-01T15:44:41.952Z,85.38
2023-01-01T15:46:22.120Z,75.80
2023-01-01T15:47:45.135Z,72.68
2023-01-01T15:49:25.284Z,67.80
2023-01-01T15:50:50.628Z,65.50
2023-01-01T15:52:27.380Z,63.63
2023-01-01T15:53:59.483Z,71.85
2023-01-01T15:55:21.542Z,55.20
2023-01-01T15:56:43.656Z,47.17
2023-01-01T15:58:05.384Z,50.03
2023-01-01T15:59:33.458Z,45.13
2023-01-01T16:01:08.029Z,47.17
2023-01-01T16:02:36.374Z,56.00
2023-01-01T16:04:28.312Z,55.60
2023-01-01T16:05:53.495Z,57.40
2023-01-01T16:07:23.428Z,54.28
2023-01-01T16:08:46.048Z,54.63
2023-01-01T16:10:18.044Z,44.38
2023-01-01T16:11:39.897Z,46.47
2023-01-01T16:13:01.788Z,50.28
2023-01-01T16:14:24.419Z,52.00
2023-01-01T16:15:58.511Z,55.47
2023-01-01T16:17:21.449Z,57.00
2023-01-01T16:18:44.345Z,64.18
2023-01-01T16:20:06.682Z,60.70
2023-01-01T16:21:32.911Z,70.93
2023-01-01T16:22:54.810Z,66.38
2023-01-01T16:24:18.856Z,81.00
2023-01-01T16:25:40.554Z,109.50
2023-01-01T16:27:02.452Z,122.13
2023-01-01T16:28:24.240Z,133.05
2023-01-01T16:29:52.760Z,121.43
2023-01-01T16:31:23.391Z,116.68
2023-01-01T16:32:46.028Z,93.70
2023-01-01T16:34:09.113Z,55.67
2023-01-01T16:35:30.799Z,71.97
2023-01-01T16:36:52.668Z,92.45
2023-01-01T16:38:14.832Z,92.10
2023-01-01T16:39:36.473Z,98.05
2023-01-01T16:40:58.566Z,109.28
2023-01-01T16:42:20.280Z,123.38
2023-01-01T16:43:43.223Z,124.45
2023-01-01T16:45:05.597Z,145.63
2023-01-01T16:46:28.171Z,159.40
2023-01-01T16:47:49.786Z,181.05
2023-01-01T16:49:11.694Z,173.27
2023-01-01T16:50:33.758Z,155.50
2023-01-01T16:51:55.581Z,152.88
2023-01-01T16:53:17.465Z,146.65
2023-01-01T16:54:41.073Z,135.07
2023-01-01T16:56:02.635Z,127.00
2023-01-01T16:57:24.702Z,127.05
2023-01-01T16:58:49.412Z,136.95
2023-01-01T17:00:12.984Z,181.10
2023-01-01T17:01:34.875Z,187.00
2023-01-01T17:02:56.950Z,196.70
2023-01-01T17:04:18.773Z,271.45
2023-01-01T17:05:44.384Z,279.83
2023-01-01T17:07:06.267Z,259.67
2023-01-01T17:08:28.152Z,268.42
2023-01-01T17:09:49.749Z,202.10
2023-01-01T17:11:17.601Z,171.52
2023-01-01T17:12:39.166Z,142.50
2023-01-01T17:14:02.495Z,114.80
2023-01-01T17:15:24.550Z,116.75
2023-01-01T17:16:46.241Z,108.90
2023-01-01T17:18:08.044Z,111.78
2023-01-01T17:19:30.035Z,112.63
2023-01-01T17:20:51.913Z,149.82
2023-01-01T17:22:13.978Z,155.30
2023-01-01T17:23:36.942Z,152.68
2023-01-01T17:24:58.897Z,143.25
2023-01-01T17:26:24.051Z,154.57
2023-01-01T17:27:45.736Z,136.60
2023-01-01T17:29:07.750Z,138.80
2023-01-01T17:30:29.863Z,140.57
2023-01-01T17:31:52.187Z,141.13
2023-01-01T17:33:13.956Z,144.55
2023-01-01T17:34:36.027Z,138.90
2023-01-01T17:35:58.347Z,125.10
2023-01-01T17:37:19.997Z,124.13
2023-01-01T17:38:44.176Z,135.02
2023-01-01T17:40:06.521Z,134.18
2023-01-01T17:41:28.382Z,155.18
2023-01-01T17:42:50.004Z,142.68
2023-01-01T17:44:12.495Z,147.23
2023-01-01T17:45:37.273Z,137.48
2023-01-01T17:46:58.879Z,180.60
2023-01-01T17:48:20.700Z,166.50
2023-01-01T17:49:43.308Z,152.82
2023-01-01T17:51:05.193Z,149.80
2023-01-01T17:52:27.064Z,158.32
2023-01-01T17:53:48.931Z,197.98
2023-01-01T17:55:10.718Z,190.32
2023-01-01T17:56:32.728Z,174.27
2023-01-01T17:57:56.828Z,159.85
2023-01-01T17:59:18.756Z,157.18
2023-01-01T18:00:40.474Z,138.15
2023-01-01T18:02:02.506Z,147.10
2023-01-01T18:03:24.615Z,147.98
2023-01-01T18:04:46.342Z,138.32
2023-01-01T18:06:09.720Z,133.40
2023-01-01T18:07:31.585Z,130.75
2023-01-01T18:08:59.040Z,133.00
2023-01-01T18:10:20.645Z,127.25
2023-01-01T18:11:43.658Z,127.25
2023-01-01T18:13:05.454Z,134.07
2023-01-01T18:14:27.589Z,130.65
2023-01-01T18:15:49.532Z,127.85
2023-01-01T18:17:11.397Z,120.03
2023-01-01T18:18:37.705Z,120.55
2023-01-01T18:19:59.686Z,119.93
2023-01-01T18:21:23.669Z,115.78
2023-01-01T18:22:45.903Z,107.57
2023-01-01T18:24:13.289Z,93.28
2023-01-01T18:25:35.133Z,95.45
2023-01-01T18:26:57.024Z,92.60
2023-01-01T18:28:18.850Z,99.80
2023-01-01T18:29:40.742Z,110.20